createdAt,value
2018-04-23T00:01:55.147Z,97706.63
2018-04-23T00:04:22.958Z,97709.31
2018-04-23T00:06:50.560Z,97703.02
2018-04-23T00:09:18.142Z,97700.42
2018-04-23T00:11:45.755Z,97696.10
2018-04-23T00:14:13.972Z,97700.73
2018-04-23T00:16:41.617Z,97698.31
2018-04-23T00:19:09.202Z,97694.74
2018-04-23T00:21:37.014Z,97690.50
2018-04-23T00:24:04.614Z,97690.27
2018-04-23T00:26:32.203Z,97690.80
2018-04-23T00:28:59.818Z,97690.45
2018-04-23T00:31:27.403Z,97687.69
2018-04-23T00:33:55.022Z,97690.86
2018-04-23T00:36:22.620Z,97688.16
2018-04-23T00:38:50.440Z,97686.08
2018-04-23T00:41:18.027Z,97692.84
2018-04-23T00:43:45.670Z,97682.22
2018-04-23T00:46:13.282Z,97679.45
2018-04-23T00:48:40.890Z,97682.87
2018-04-23T00:51:08.513Z,97685.28
2018-04-23T00:53:42.730Z,97690.28
2018-04-23T00:56:10.340Z,97681.11
2018-04-23T00:58:37.934Z,97677.48
2018-04-23T01:01:05.957Z,97681.27
2018-04-23T01:03:33.551Z,97678.30
2018-04-23T01:06:01.138Z,97679.24
2018-04-23T01:08:28.751Z,97677.84
2018-04-23T01:10:56.341Z,97679.28
2018-04-23T01:13:23.956Z,97681.63
2018-04-23T01:15:51.584Z,97688.81
2018-04-23T01:18:19.228Z,97690.42
2018-04-23T01:20:46.829Z,97688.14
2018-04-23T01:23:14.435Z,97694.45
2018-04-23T01:25:42.034Z,97693.42
2018-04-23T01:28:09.634Z,97700.48
2018-04-23T01:30:37.249Z,97697.52
2018-04-23T01:33:04.842Z,97693.20
2018-04-23T01:35:32.614Z,97683.38
2018-04-23T01:38:00.206Z,97691.77
2018-04-23T01:40:27.799Z,97691.74
2018-04-23T01:42:55.438Z,97694.87
2018-04-23T01:45:23.027Z,97698.48
2018-04-23T01:47:50.646Z,97697.09
2018-04-23T01:50:18.240Z,97696.81
2018-04-23T01:52:46.147Z,97691.66
2018-04-23T01:55:13.742Z,97702.95
2018-04-23T01:57:41.338Z,97703.29
2018-04-23T02:00:08.950Z,97707.63
2018-04-23T02:02:36.548Z,97713.73
2018-04-23T02:05:04.167Z,97708.33
2018-04-23T02:07:31.770Z,97712.45
2018-04-23T02:09:59.544Z,97715.38
2018-04-23T02:12:27.135Z,97712.42
2018-04-23T02:14:54.740Z,97717.24
2018-04-23T02:17:22.369Z,97715.78
2018-04-23T02:19:49.971Z,97717.57
2018-04-23T02:22:17.591Z,97719.63
2018-04-23T02:24:45.185Z,97719.89
2018-04-23T02:27:12.815Z,97721.83
2018-04-23T02:29:40.410Z,97725.13
2018-04-23T02:32:08.063Z,97723.91
2018-04-23T02:34:35.678Z,97723.45
2018-04-23T02:37:03.281Z,97725.30
2018-04-23T02:39:30.930Z,97727.67
2018-04-23T02:41:58.527Z,97726.56
2018-04-23T02:44:26.113Z,97733.34
2018-04-23T02:46:53.738Z,97731.77
2018-04-23T02:49:21.433Z,97727.53
2018-04-23T02:51:49.085Z,97735.64
2018-04-23T02:54:16.683Z,97727.97
2018-04-23T02:56:44.276Z,97730.00
2018-04-23T02:59:11.905Z,97730.66
2018-04-23T03:01:39.495Z,97728.13
2018-04-23T03:04:07.109Z,97735.67
2018-04-23T03:06:34.707Z,97727.38
2018-04-23T03:09:02.463Z,97737.64
2018-04-23T03:11:30.072Z,97724.43
2018-04-23T03:13:57.674Z,97720.34
2018-04-23T03:16:25.286Z,97724.94
2018-04-23T03:18:52.871Z,97730.99
2018-04-23T03:21:20.482Z,97727.83
2018-04-23T03:23:48.076Z,97730.23
2018-04-23T03:26:15.707Z,97726.27
2018-04-23T03:28:43.327Z,97725.52
2018-04-23T03:31:10.929Z,97725.34
2018-04-23T03:33:38.550Z,97726.38
2018-04-23T03:36:06.183Z,97720.83
2018-04-23T03:38:34.014Z,97725.56
2018-04-23T03:41:01.607Z,97724.86
2018-04-23T03:43:29.200Z,97720.78
2018-04-23T03:45:56.819Z,97726.42
2018-04-23T03:48:24.406Z,97729.14
2018-04-23T03:50:52.051Z,97729.16
2018-04-23T03:53:19.637Z,97729.34
2018-04-23T03:55:47.233Z,97728.50
2018-04-23T03:58:14.944Z,97733.00
2018-04-23T04:00:42.544Z,97738.67
2018-04-23T04:03:10.181Z,97741.19
2018-04-23T04:05:37.778Z,97740.80
2018-04-23T04:08:05.376Z,97741.45
2018-04-23T04:10:32.988Z,97737.77
2018-04-23T04:13:12.335Z,97745.34
2018-04-23T04:15:51.550Z,97745.30
2018-04-23T04:18:40.015Z,97747.98
2018-04-23T04:21:07.697Z,97743.80
2018-04-23T04:23:35.310Z,97748.45
2018-04-23T04:26:02.938Z,97748.63
2018-04-23T04:28:32.299Z,97743.32
2018-04-23T04:30:59.914Z,97746.61
2018-04-23T04:33:27.507Z,97746.13
2018-04-23T04:35:55.137Z,97746.44
2018-04-23T04:38:22.746Z,97754.52
2018-04-23T04:40:50.368Z,97754.69
2018-04-23T04:43:17.994Z,97751.00
2018-04-23T04:45:45.583Z,97753.86
2018-04-23T04:48:13.218Z,97751.48
2018-04-23T04:50:40.818Z,97758.16
2018-04-23T04:53:08.435Z,97757.14
2018-04-23T04:55:36.027Z,97755.26
2018-04-23T04:58:03.655Z,97762.72
2018-04-23T05:00:31.275Z,97762.03
2018-04-23T05:02:58.886Z,97760.92
2018-04-23T05:05:26.543Z,97763.47
2018-04-23T05:07:54.133Z,97760.29
2018-04-23T05:10:21.731Z,97758.05
2018-04-23T05:12:49.347Z,97770.27
2018-04-23T05:15:16.951Z,97769.20
2018-04-23T05:17:44.606Z,97765.44
2018-04-23T05:20:12.194Z,97760.81
2018-04-23T05:22:39.802Z,97759.80
2018-04-23T05:25:07.415Z,97765.81
2018-04-23T05:27:35.007Z,97769.09
2018-04-23T05:30:02.833Z,97765.15
2018-04-23T05:32:30.384Z,97772.41
2018-04-23T05:34:57.985Z,97769.91
2018-04-23T05:37:25.612Z,97773.38
2018-04-23T05:39:53.220Z,97768.64
2018-04-23T05:42:21.070Z,97775.44
2018-04-23T05:44:48.666Z,97778.80
2018-04-23T05:47:16.258Z,97779.88
2018-04-23T05:49:43.877Z,97782.31
2018-04-23T05:52:11.479Z,97780.92
2018-04-23T05:54:39.268Z,97782.36
2018-04-23T05:57:06.877Z,97778.73
2018-04-23T05:59:34.473Z,97782.90
2018-04-23T06:02:02.099Z,97780.61
2018-04-23T06:04:29.707Z,97784.49
2018-04-23T06:06:57.591Z,97782.91
2018-04-23T06:09:25.202Z,97779.29
2018-04-23T06:11:52.877Z,97781.66
2018-04-23T06:14:20.536Z,97786.77
2018-04-23T06:16:48.115Z,97791.66
2018-04-23T06:19:15.743Z,97789.92
2018-04-23T06:21:43.429Z,97792.44
2018-04-23T06:24:11.089Z,97786.26
2018-04-23T06:26:38.902Z,97789.34
2018-04-23T06:29:06.519Z,97790.86
2018-04-23T06:31:34.140Z,97787.55
2018-04-23T06:34:01.739Z,97784.23
2018-04-23T06:36:29.762Z,97786.20
2018-04-23T06:38:57.373Z,97791.84
2018-04-23T06:41:25.219Z,97793.29
2018-04-23T06:43:52.806Z,97787.88
2018-04-23T06:46:20.453Z,97789.27
2018-04-23T06:48:48.155Z,97787.68
2018-04-23T06:51:15.778Z,97794.22
2018-04-23T06:53:43.406Z,97787.34
2018-04-23T06:56:11.006Z,97786.92
2018-04-23T06:58:38.816Z,97794.12
2018-04-23T07:01:06.428Z,97786.91
2018-04-23T07:03:34.042Z,97787.88
2018-04-23T07:06:01.699Z,97790.41
2018-04-23T07:08:29.292Z,97780.64
2018-04-23T07:10:56.915Z,97789.70
2018-04-23T07:13:24.583Z,97785.52
2018-04-23T07:15:52.248Z,97781.25
2018-04-23T07:18:19.852Z,97783.68
2018-04-23T07:20:47.456Z,97780.77
2018-04-23T07:23:15.079Z,97779.21
2018-04-23T07:25:42.685Z,97778.89
2018-04-23T07:28:10.302Z,97773.55
2018-04-23T07:30:37.898Z,97784.86
2018-04-23T07:33:05.527Z,97777.87
2018-04-23T07:35:33.127Z,97777.66
2018-04-23T07:38:00.720Z,97777.66
2018-04-23T07:40:28.355Z,97778.93
2018-04-23T07:42:55.937Z,97784.55
2018-04-23T07:45:23.566Z,97783.41
2018-04-23T07:47:51.193Z,97771.48
2018-04-23T07:50:18.840Z,97783.30
2018-04-23T07:52:46.454Z,97781.67
2018-04-23T07:55:14.064Z,97788.25
2018-04-23T07:57:41.689Z,97776.69
2018-04-23T08:00:09.410Z,97773.80
2018-04-23T08:02:37.038Z,97777.73
2018-04-23T08:05:04.645Z,97770.08
2018-04-23T08:07:32.434Z,97783.09
2018-04-23T08:10:00.052Z,97781.14
2018-04-23T08:12:27.670Z,97780.64
2018-04-23T08:14:55.286Z,97777.92
2018-04-23T08:17:22.874Z,97782.70
2018-04-23T08:19:50.499Z,97772.17
2018-04-23T08:22:18.098Z,97778.45
2018-04-23T08:24:46.071Z,97778.05
2018-04-23T08:27:13.662Z,97776.67
2018-04-23T08:29:41.250Z,97784.02
2018-04-23T08:32:08.862Z,97781.47
2018-04-23T08:34:36.458Z,97784.67
2018-04-23T08:37:04.067Z,97789.00
2018-04-23T08:39:31.666Z,97789.18
2018-04-23T08:41:59.684Z,97783.42
2018-04-23T08:44:27.290Z,97790.63
2018-04-23T08:46:54.902Z,97790.69
2018-04-23T08:49:22.514Z,97796.94
2018-04-23T08:51:50.102Z,97795.51
2018-04-23T08:54:17.719Z,97798.16
2018-04-23T08:56:45.313Z,97802.44
2018-04-23T08:59:13.151Z,97801.50
2018-04-23T09:01:40.749Z,97804.38
2018-04-23T09:04:08.359Z,97808.59
2018-04-23T09:06:35.974Z,97813.23
2018-04-23T09:09:03.577Z,97812.16
2018-04-23T09:11:31.194Z,97818.12
2018-04-23T09:13:58.800Z,97814.19
2018-04-23T09:16:26.662Z,97813.52
2018-04-23T09:18:54.260Z,97817.05
2018-04-23T09:21:21.908Z,97816.20
2018-04-23T09:23:49.535Z,97818.77
2018-04-23T09:26:17.134Z,97828.32
2018-04-23T09:28:44.797Z,97825.01
2018-04-23T09:31:12.387Z,97833.62
2018-04-23T09:33:40.022Z,97842.61
2018-04-23T09:36:07.627Z,97843.89
2018-04-23T09:38:35.230Z,97854.52
2018-04-23T09:41:02.857Z,97854.22
2018-04-23T09:43:30.476Z,97854.53
2018-04-23T09:45:58.142Z,97876.56
2018-04-23T09:48:25.767Z,97862.15
2018-04-23T09:50:53.395Z,97881.39
2018-04-23T09:53:21.007Z,97871.67
2018-04-23T09:55:48.602Z,97876.22
2018-04-23T09:58:16.221Z,97885.14
2018-04-23T10:00:43.815Z,97903.37
2018-04-23T10:03:11.670Z,97913.28
2018-04-23T10:05:39.280Z,97925.58
2018-04-23T10:08:06.880Z,97956.19
2018-04-23T10:10:34.505Z,97956.04
2018-04-23T10:13:02.149Z,97949.04
2018-04-23T10:15:29.981Z,97962.27
2018-04-23T10:17:57.598Z,97958.13
2018-04-23T10:20:25.186Z,97957.30
2018-04-23T10:22:52.806Z,97957.09
2018-04-23T10:25:20.399Z,97938.07
2018-04-23T10:27:48.046Z,97938.52
2018-04-23T10:30:15.639Z,97933.14
2018-04-23T10:32:43.435Z,97946.78
2018-04-23T10:35:11.021Z,97963.91
2018-04-23T10:37:38.618Z,97965.11
2018-04-23T10:40:06.262Z,97975.77
2018-04-23T10:42:33.874Z,97983.63
2018-04-23T10:45:01.494Z,97985.73
2018-04-23T10:47:29.090Z,97980.23
2018-04-23T10:49:56.740Z,97980.97
2018-04-23T10:52:24.353Z,97983.66
2018-04-23T10:54:51.964Z,97965.50
2018-04-23T10:57:19.599Z,97968.52
2018-04-23T10:59:47.194Z,97974.25
2018-04-23T11:02:14.823Z,97976.85
2018-04-23T11:04:42.423Z,97974.03
2018-04-23T11:07:10.153Z,97969.92
2018-04-23T11:09:37.857Z,97971.56
2018-04-23T11:12:05.460Z,97962.03
2018-04-23T11:14:33.084Z,97966.61
2018-04-23T11:17:00.699Z,97957.17
2018-04-23T11:19:28.328Z,97963.55
2018-04-23T11:21:55.930Z,97965.25
2018-04-23T11:24:23.983Z,97962.69
2018-04-23T11:26:51.588Z,97960.92
2018-04-23T11:29:19.185Z,97961.00
2018-04-23T11:31:46.796Z,97956.59
2018-04-23T11:34:14.394Z,97947.00
2018-04-23T11:36:42.149Z,97945.66
2018-04-23T11:39:09.765Z,97940.05
2018-04-23T11:41:37.502Z,97940.22
2018-04-23T11:44:05.138Z,97938.18
2018-04-23T11:46:32.776Z,97942.72
2018-04-23T11:49:00.404Z,97938.46
2018-04-23T11:51:28.008Z,97939.16
2018-04-23T11:53:55.645Z,97935.63
2018-04-23T11:56:23.253Z,97930.82
2018-04-23T11:58:51.120Z,97935.08
2018-04-23T12:01:18.721Z,97931.95
2018-04-23T12:03:46.317Z,97930.97
2018-04-23T12:06:13.935Z,97921.95
2018-04-23T12:08:41.532Z,97922.38
2018-04-23T12:11:09.165Z,97919.67
2018-04-23T12:13:36.759Z,97921.63
2018-04-23T12:16:04.458Z,97927.42
2018-04-23T12:18:32.084Z,97931.12
2018-04-23T12:20:59.673Z,97926.91
2018-04-23T12:23:27.303Z,97930.89
2018-04-23T12:25:54.922Z,97921.52
2018-04-23T12:28:22.559Z,97918.89
2018-04-23T12:30:50.155Z,97925.55
2018-04-23T12:33:17.960Z,97921.00
2018-04-23T12:35:45.562Z,97917.92
2018-04-23T12:38:13.183Z,97912.55
2018-04-23T12:40:40.788Z,97912.41
2018-04-23T12:43:08.415Z,97909.11
2018-04-23T12:45:36.012Z,97910.48
2018-04-23T12:48:03.658Z,97903.33
2018-04-23T12:50:31.250Z,97898.77
2018-04-23T12:52:58.848Z,97889.19
2018-04-23T12:55:26.468Z,97882.64
2018-04-23T12:57:54.069Z,97881.30
2018-04-23T13:00:21.738Z,97876.92
2018-04-23T13:02:49.358Z,97871.16
2018-04-23T13:05:17.250Z,97867.13
2018-04-23T13:07:44.860Z,97866.29
2018-04-23T13:10:12.474Z,97861.47
2018-04-23T13:12:40.092Z,97857.64
2018-04-23T13:15:07.695Z,97858.37
2018-04-23T13:17:35.338Z,97858.92
2018-04-23T13:20:02.960Z,97858.55
2018-04-23T13:22:30.790Z,97861.25
2018-04-23T13:24:58.378Z,97854.61
2018-04-23T13:27:25.975Z,97855.42
2018-04-23T13:29:53.587Z,97848.72
2018-04-23T13:32:21.208Z,97847.47
2018-04-23T13:34:48.834Z,97848.44
2018-04-23T13:37:16.430Z,97842.11
2018-04-23T13:39:44.059Z,97848.04
2018-04-23T13:42:11.650Z,97848.56
2018-04-23T13:44:39.276Z,97853.68
2018-04-23T13:47:06.899Z,97845.59
2018-04-23T13:49:34.511Z,97839.02
2018-04-23T13:52:02.157Z,97845.78
2018-04-23T13:54:29.804Z,97831.96
2018-04-23T13:56:57.434Z,97833.98
2018-04-23T13:59:25.027Z,97828.61
2018-04-23T14:01:52.691Z,97831.42
2018-04-23T14:04:20.285Z,97827.59
2018-04-23T14:06:47.895Z,97823.99
2018-04-23T14:09:15.521Z,97821.56
2018-04-23T14:11:43.115Z,97814.56
2018-04-23T14:14:10.733Z,97810.73
2018-04-23T14:16:38.327Z,97815.81
2018-04-23T14:19:06.061Z,97818.80
2018-04-23T14:21:33.676Z,97815.09
2018-04-23T14:24:01.273Z,97811.53
2018-04-23T14:26:28.906Z,97799.75
2018-04-23T14:28:56.510Z,97803.02
2018-04-23T14:31:24.135Z,97800.80
2018-04-23T14:33:51.728Z,97794.52
2018-04-23T14:36:20.268Z,97791.70
2018-04-23T14:38:47.868Z,97801.28
2018-04-23T14:41:15.470Z,97803.94
2018-04-23T14:43:43.088Z,97806.66
2018-04-23T14:46:10.809Z,97814.01
2018-04-23T14:48:38.441Z,97818.29
2018-04-23T14:51:06.036Z,97821.23
2018-04-23T14:53:34.119Z,97828.30
2018-04-23T14:56:01.777Z,97827.79
2018-04-23T14:58:29.379Z,97824.40
2018-04-23T15:00:57.008Z,97826.40
2018-04-23T15:03:24.612Z,97828.51
2018-04-23T15:05:52.245Z,97821.03
2018-04-23T15:08:19.880Z,97817.44
2018-04-23T15:10:47.635Z,97812.23
2018-04-23T15:13:15.241Z,97808.34
2018-04-23T15:15:42.834Z,97800.63
2018-04-23T15:18:10.465Z,97805.86
2018-04-23T15:20:38.078Z,97803.62
2018-04-23T15:23:05.754Z,97812.33
2018-04-23T15:25:33.344Z,97812.52
2018-04-23T15:28:00.991Z,97813.84
2018-04-23T15:30:28.637Z,97808.34
2018-04-23T15:32:56.253Z,97796.93
2018-04-23T15:35:23.874Z,97803.16
2018-04-23T15:37:51.471Z,97795.30
2018-04-23T15:40:19.074Z,97793.31
2018-04-23T15:42:46.667Z,97811.66
2018-04-23T15:45:14.403Z,97804.02
2018-04-23T15:47:42.010Z,97806.94
2018-04-23T15:50:09.622Z,97806.85
2018-04-23T15:52:37.237Z,97813.80
2018-04-23T15:55:04.878Z,97810.87
2018-04-23T15:57:32.507Z,97817.70
2018-04-23T16:00:00.099Z,97825.73
2018-04-23T16:02:27.915Z,97832.79
2018-04-23T16:04:55.513Z,97829.50
2018-04-23T16:07:23.166Z,97832.16
2018-04-23T16:09:50.801Z,97828.22
2018-04-23T16:12:18.387Z,97829.08
2018-04-23T16:14:46.010Z,97831.36
2018-04-23T16:17:13.603Z,97826.55
2018-04-23T16:19:41.579Z,97819.60
2018-04-23T16:22:09.184Z,97828.70
2018-04-23T16:24:36.812Z,97818.52
2018-04-23T16:27:04.430Z,97815.09
2018-04-23T16:29:32.026Z,97820.24
2018-04-23T16:31:59.650Z,97824.89
2018-04-23T16:34:27.330Z,97818.91
2018-04-23T16:36:54.975Z,97823.53
2018-04-23T16:39:22.583Z,97835.47
2018-04-23T16:41:50.192Z,97823.89
2018-04-23T16:44:17.817Z,97831.75
2018-04-23T16:46:45.430Z,97834.02
2018-04-23T16:49:13.062Z,97824.34
2018-04-23T16:51:40.670Z,97816.19
2018-04-23T16:54:08.856Z,97825.58
2018-04-23T16:56:36.451Z,97818.82
2018-04-23T16:59:04.081Z,97817.00
2018-04-23T17:01:31.706Z,97818.34
2018-04-23T17:03:59.302Z,97815.92
2018-04-23T17:06:27.019Z,97813.91
2018-04-23T17:08:54.615Z,97810.77
2018-04-23T17:11:22.427Z,97814.89
2018-04-23T17:13:50.021Z,97808.56
2018-04-23T17:16:17.614Z,97812.50
2018-04-23T17:18:45.287Z,97816.08
2018-04-23T17:21:12.852Z,97817.35
2018-04-23T17:23:40.471Z,97826.75
2018-04-23T17:26:08.062Z,97818.43
2018-04-23T17:28:35.824Z,97826.52
2018-04-23T17:31:03.427Z,97829.84
2018-04-23T17:33:31.039Z,97829.75
2018-04-23T17:35:58.670Z,97832.20
2018-04-23T17:38:26.405Z,97838.22
2018-04-23T17:40:54.022Z,97841.38
2018-04-23T17:43:21.638Z,97847.02
2018-04-23T17:45:49.454Z,97852.00
2018-04-23T17:48:17.060Z,97858.14
2018-04-23T17:50:44.659Z,97861.38
2018-04-23T17:53:12.285Z,97861.47
2018-04-23T17:55:39.883Z,97855.19
2018-04-23T17:58:07.497Z,97858.26
2018-04-23T18:00:35.091Z,97856.77
2018-04-23T18:03:03.004Z,97851.27
2018-04-23T18:05:30.614Z,97843.48
2018-04-23T18:07:58.206Z,97842.15
2018-04-23T18:10:25.830Z,97838.63
2018-04-23T18:12:53.421Z,97833.27
2018-04-23T18:15:21.038Z,97821.59
2018-04-23T18:17:48.640Z,97814.00
2018-04-23T18:20:16.272Z,97816.41
2018-04-23T18:22:43.899Z,97817.53
2018-04-23T18:25:11.491Z,97827.22
2018-04-23T18:27:39.115Z,97842.91
2018-04-23T18:30:06.721Z,97855.70
2018-04-23T18:32:34.345Z,97861.33
2018-04-23T18:35:01.940Z,97865.96
2018-04-23T18:37:29.542Z,97861.91
2018-04-23T18:39:57.154Z,97858.30
2018-04-23T18:42:24.746Z,97853.41
2018-04-23T18:44:52.378Z,97848.50
2018-04-23T18:47:20.012Z,97860.88
2018-04-23T18:49:47.656Z,97857.05
2018-04-23T18:52:15.264Z,97863.58
2018-04-23T18:54:42.851Z,97872.44
2018-04-23T18:57:10.476Z,97884.77
2018-04-23T18:59:38.074Z,97886.82
2018-04-23T19:02:05.705Z,97892.40
2018-04-23T19:04:33.331Z,97887.42
2018-04-23T19:07:01.403Z,97889.95
2018-04-23T19:09:28.988Z,97897.46
2018-04-23T19:11:56.579Z,97900.30
2018-04-23T19:14:24.203Z,97898.14
2018-04-23T19:16:51.810Z,97906.11
2018-04-23T19:19:19.429Z,97902.23
2018-04-23T19:21:47.111Z,97899.77
2018-04-23T19:24:14.716Z,97914.13
2018-04-23T19:26:42.338Z,97907.92
2018-04-23T19:29:09.942Z,97911.30
2018-04-23T19:31:37.574Z,97907.32
2018-04-23T19:34:05.179Z,97917.12
2018-04-23T19:36:32.799Z,97927.80
2018-04-23T19:39:00.394Z,97925.69
2018-04-23T19:41:28.006Z,97933.10
2018-04-23T19:43:55.604Z,97937.59
2018-04-23T19:46:23.296Z,97938.46
2018-04-23T19:48:50.828Z,97937.69
2018-04-23T19:51:18.430Z,97933.02
2018-04-23T19:53:46.026Z,97937.19
2018-04-23T19:56:13.648Z,97932.91
2018-04-23T19:58:41.250Z,97936.27
2018-04-23T20:01:09.065Z,97944.33
2018-04-23T20:03:36.665Z,97938.90
2018-04-23T20:06:04.255Z,97948.16
2018-04-23T20:08:31.867Z,97955.86
2018-04-23T20:10:59.464Z,97953.63
2018-04-23T20:13:27.098Z,97961.81
2018-04-23T20:15:54.701Z,97959.83
2018-04-23T20:18:22.326Z,97959.88
2018-04-23T20:20:49.922Z,97955.66
2018-04-23T20:23:17.610Z,97961.81
2018-04-23T20:25:45.146Z,97963.30
2018-04-23T20:28:12.767Z,97965.63
2018-04-23T20:30:40.367Z,97970.39
2018-04-23T20:33:08.025Z,97961.05
2018-04-23T20:35:41.507Z,97974.59
2018-04-23T20:38:09.330Z,97966.91
2018-04-23T20:40:36.928Z,97969.63
2018-04-23T20:43:04.522Z,97974.03
2018-04-23T20:45:32.144Z,97984.45
2018-04-23T20:47:59.738Z,97974.00
2018-04-23T20:50:27.351Z,97971.95
2018-04-23T20:52:54.953Z,97970.83
2018-04-23T20:55:22.859Z,97975.56
2018-04-23T20:57:50.479Z,97977.84
2018-04-23T21:00:18.218Z,97974.22
2018-04-23T21:02:45.851Z,97980.22
2018-04-23T21:05:13.459Z,97979.52
2018-04-23T21:07:41.074Z,97987.20
2018-04-23T21:10:08.698Z,97984.73
2018-04-23T21:12:36.608Z,97987.41
2018-04-23T21:15:04.211Z,97990.29
2018-04-23T21:17:31.796Z,97992.56
2018-04-23T21:19:59.436Z,97992.66
2018-04-23T21:22:27.137Z,97987.59
2018-04-23T21:24:54.707Z,97987.98
2018-04-23T21:27:22.319Z,97997.37
2018-04-23T21:29:50.274Z,97997.55
2018-04-23T21:32:17.870Z,97999.78
2018-04-23T21:34:45.480Z,98000.07
2018-04-23T21:37:13.143Z,98006.51
2018-04-23T21:39:40.734Z,98005.23
2018-04-23T21:42:08.354Z,98011.95
2018-04-23T21:44:35.957Z,98012.04
2018-04-23T21:47:03.973Z,98017.00
2018-04-23T21:49:31.574Z,98020.13
2018-04-23T21:51:59.170Z,98018.02
2018-04-23T21:54:26.799Z,98024.75
2018-04-23T21:56:54.508Z,98034.91
2018-04-23T21:59:22.202Z,98027.14
2018-04-23T22:01:49.807Z,98035.55
2018-04-23T22:04:17.716Z,98035.78
2018-04-23T22:06:45.387Z,98031.20
2018-04-23T22:09:12.991Z,98032.55
2018-04-23T22:11:40.598Z,98024.44
2018-04-23T22:14:08.218Z,98032.80
2018-04-23T22:16:35.839Z,98029.56
2018-04-23T22:19:03.453Z,98024.59
2018-04-23T22:21:31.074Z,98023.17
2018-04-23T22:23:58.672Z,98023.06
2018-04-23T22:26:26.317Z,98027.17
2018-04-23T22:28:53.917Z,98029.88
2018-04-23T22:31:21.526Z,98035.77
2018-04-23T22:33:49.149Z,98036.09
2018-04-23T22:36:16.750Z,98042.17
2018-04-23T22:38:44.396Z,98040.64
2018-04-23T22:41:11.994Z,98035.92
2018-04-23T22:43:39.590Z,98040.11
2018-04-23T22:46:07.215Z,98035.59
2018-04-23T22:48:34.818Z,98046.14
2018-04-23T22:51:02.592Z,98044.61
2018-04-23T22:53:30.197Z,98042.41
2018-04-23T22:55:57.807Z,98042.41
2018-04-23T22:58:25.499Z,98055.43
2018-04-23T23:00:53.078Z,98045.64
2018-04-23T23:03:20.704Z,98048.02
2018-04-23T23:05:48.308Z,98043.70
2018-04-23T23:08:15.920Z,98055.11
2018-04-23T23:10:43.519Z,98054.53
2018-04-23T23:13:11.247Z,98057.25
2018-04-23T23:15:38.848Z,98059.52
2018-04-23T23:18:06.459Z,98053.06
2018-04-23T23:20:34.083Z,98055.67
2018-04-23T23:23:01.691Z,98055.78
2018-04-23T23:25:29.314Z,98057.95
2018-04-23T23:27:56.910Z,98066.53
2018-04-23T23:30:24.546Z,98072.04
2018-04-23T23:32:52.181Z,98070.32
2018-04-23T23:35:19.771Z,98071.97
2018-04-23T23:37:47.394Z,98073.17
2018-04-23T23:40:15.001Z,98071.27
2018-04-23T23:42:42.623Z,98074.91
2018-04-23T23:45:10.218Z,98071.50
2018-04-23T23:47:37.982Z,98071.73
2018-04-23T23:50:05.590Z,98065.27
2018-04-23T23:52:33.208Z,98073.02
2018-04-23T23:55:00.834Z,98070.06
2018-04-23T23:57:28.438Z,98074.42
2018-04-23T23:59:56.063Z,98075.38
